createdAt,value
2023-02-28T00:00:10.962Z,51.71
2023-02-28T00:02:13.586Z,52.20
2023-02-28T00:04:16.215Z,52.27
2023-02-28T00:06:19.155Z,52.03
2023-02-28T00:08:21.925Z,52.17
2023-02-28T00:10:27.463Z,52.52
2023-02-28T00:12:30.013Z,52.21
2023-02-28T00:14:32.687Z,52.38
2023-02-28T00:16:36.634Z,53.06
2023-02-28T00:18:39.783Z,52.72
2023-02-28T00:20:42.350Z,52.77
2023-02-28T00:22:47.555Z,52.85
2023-02-28T00:24:50.152Z,53.02
2023-02-28T00:26:52.743Z,52.80
2023-02-28T00:28:55.270Z,52.61
2023-02-28T00:30:58.463Z,53.46
2023-02-28T00:33:02.523Z,52.75
2023-02-28T00:35:06.350Z,53.25
2023-02-28T00:37:13.373Z,52.76
2023-02-28T00:39:15.901Z,53.17
2023-02-28T00:41:18.486Z,53.16
2023-02-28T00:43:21.019Z,53.67
2023-02-28T00:45:23.548Z,53.49
2023-02-28T00:47:26.239Z,52.88
2023-02-28T00:49:30.323Z,52.80
2023-02-28T00:51:32.903Z,53.67
2023-02-28T00:53:35.642Z,53.43
2023-02-28T00:55:38.196Z,53.21
2023-02-28T00:57:40.903Z,53.21
2023-02-28T00:59:43.472Z,53.65
2023-02-28T01:01:48.312Z,53.39
2023-02-28T01:03:50.914Z,53.66
2023-02-28T01:05:54.984Z,53.63
2023-02-28T01:07:57.512Z,53.88
2023-02-28T01:10:00.077Z,53.63
2023-02-28T01:12:02.724Z,53.76
2023-02-28T01:14:05.929Z,53.69
2023-02-28T01:16:09.131Z,53.91
2023-02-28T01:18:11.686Z,53.78
2023-02-28T01:20:17.461Z,54.17
2023-02-28T01:22:21.320Z,53.76
2023-02-28T01:24:23.883Z,54.80
2023-02-28T01:26:26.964Z,54.17
2023-02-28T01:28:30.795Z,54.91
2023-02-28T01:30:33.734Z,54.65
2023-02-28T01:32:36.290Z,54.22
2023-02-28T01:34:38.893Z,54.72
2023-02-28T01:36:41.448Z,54.31
2023-02-28T01:38:45.838Z,54.77
2023-02-28T01:40:48.406Z,54.83
2023-02-28T01:42:51.028Z,54.34
2023-02-28T01:45:08.552Z,54.38
2023-02-28T01:47:11.168Z,55.18
2023-02-28T01:49:17.259Z,54.69
2023-02-28T01:51:24.119Z,54.36
2023-02-28T01:53:31.846Z,54.62
2023-02-28T01:55:36.507Z,54.43
2023-02-28T01:57:43.682Z,55.23
2023-02-28T01:59:51.840Z,55.12
2023-02-28T02:01:55.326Z,55.74
2023-02-28T02:04:03.096Z,54.85
2023-02-28T02:06:06.301Z,55.63
2023-02-28T02:08:11.463Z,55.77
2023-02-28T02:10:16.546Z,55.30
2023-02-28T02:12:31.507Z,55.41
2023-02-28T02:14:50.244Z,55.47
2023-02-28T02:17:06.811Z,55.94
2023-02-28T02:19:27.500Z,55.17
2023-02-28T02:21:55.418Z,55.74
2023-02-28T02:24:24.569Z,55.30
2023-02-28T02:26:55.653Z,56.07
2023-02-28T02:29:15.406Z,56.25
2023-02-28T02:31:39.005Z,55.54
2023-02-28T02:34:18.787Z,55.74
2023-02-28T02:36:27.440Z,55.64
2023-02-28T02:38:35.241Z,56.13
2023-02-28T02:40:44.539Z,55.95
2023-02-28T02:42:52.975Z,55.99
2023-02-28T02:45:02.912Z,56.20
2023-02-28T02:47:09.997Z,56.30
2023-02-28T02:49:18.478Z,55.52
2023-02-28T02:51:24.884Z,55.80
2023-02-28T02:53:32.206Z,55.71
2023-02-28T02:55:39.708Z,55.93
2023-02-28T02:57:47.956Z,56.17
2023-02-28T02:59:53.699Z,55.97
2023-02-28T03:01:59.967Z,56.47
2023-02-28T03:04:06.166Z,56.19
2023-02-28T03:06:09.338Z,56.11
2023-02-28T03:08:13.318Z,56.00
2023-02-28T03:10:37.822Z,56.45
2023-02-28T03:12:47.264Z,56.58
2023-02-28T03:15:01.045Z,56.72
2023-02-28T03:17:30.086Z,56.24
2023-02-28T03:19:45.061Z,55.96
2023-02-28T03:21:57.553Z,56.03
2023-02-28T03:24:08.850Z,56.14
2023-02-28T03:26:21.426Z,56.51
2023-02-28T03:28:33.863Z,56.60
2023-02-28T03:30:43.541Z,56.69
2023-02-28T03:32:56.056Z,57.05
2023-02-28T03:35:05.796Z,57.21
2023-02-28T03:37:14.309Z,57.07
2023-02-28T03:39:22.582Z,57.26
2023-02-28T03:41:29.855Z,56.92
2023-02-28T03:43:36.988Z,57.34
2023-02-28T03:45:41.628Z,57.69
2023-02-28T03:47:48.792Z,57.52
2023-02-28T03:49:55.919Z,57.96
2023-02-28T03:52:03.957Z,57.90
2023-02-28T03:54:14.805Z,58.33
2023-02-28T03:56:21.978Z,58.02
2023-02-28T03:58:32.014Z,58.43
2023-02-28T04:00:37.657Z,58.46
2023-02-28T04:02:41.440Z,58.40
2023-02-28T04:04:49.405Z,58.80
2023-02-28T04:06:53.582Z,58.60
2023-02-28T04:08:56.712Z,58.49
2023-02-28T04:11:02.797Z,58.25
2023-02-28T04:13:06.680Z,57.18
2023-02-28T04:15:11.485Z,58.35
2023-02-28T04:17:14.071Z,58.60
2023-02-28T04:19:16.935Z,58.65
2023-02-28T04:21:22.060Z,58.73
2023-02-28T04:23:24.665Z,58.43
2023-02-28T04:25:27.242Z,58.45
2023-02-28T04:27:32.432Z,58.74
2023-02-28T04:29:36.927Z,58.97
2023-02-28T04:31:39.828Z,59.06
2023-02-28T04:33:42.403Z,59.24
2023-02-28T04:35:45.054Z,59.33
2023-02-28T04:37:47.615Z,58.95
2023-02-28T04:39:50.155Z,59.44
2023-02-28T04:41:52.815Z,59.27
2023-02-28T04:43:56.881Z,59.11
2023-02-28T04:46:04.143Z,59.60
2023-02-28T04:48:06.796Z,59.19
2023-02-28T04:50:10.688Z,59.28
2023-02-28T04:52:14.245Z,59.13
2023-02-28T04:54:17.135Z,59.18
2023-02-28T04:56:20.545Z,59.42
2023-02-28T04:58:24.260Z,59.83
2023-02-28T05:00:26.907Z,59.37
2023-02-28T05:02:30.807Z,59.01
2023-02-28T05:04:35.116Z,59.41
2023-02-28T05:06:37.699Z,59.39
2023-02-28T05:08:40.445Z,59.41
2023-02-28T05:10:43.015Z,60.13
2023-02-28T05:12:45.550Z,59.74
2023-02-28T05:14:48.128Z,59.40
2023-02-28T05:16:50.724Z,59.40
2023-02-28T05:18:55.360Z,60.12
2023-02-28T05:20:57.982Z,59.35
2023-02-28T05:23:02.142Z,59.95
2023-02-28T05:25:05.703Z,60.31
2023-02-28T05:27:08.262Z,60.22
2023-02-28T05:29:11.674Z,60.28
2023-02-28T05:31:14.884Z,60.01
2023-02-28T05:33:17.485Z,60.51
2023-02-28T05:35:21.497Z,60.42
2023-02-28T05:37:24.101Z,60.71
2023-02-28T05:39:26.656Z,60.31
2023-02-28T05:41:29.547Z,60.72
2023-02-28T05:43:32.354Z,60.43
2023-02-28T05:45:34.961Z,61.14
2023-02-28T05:47:37.925Z,60.77
2023-02-28T05:49:40.526Z,60.49
2023-02-28T05:51:44.603Z,61.17
2023-02-28T05:53:48.018Z,60.28
2023-02-28T05:55:50.613Z,60.81
2023-02-28T05:57:55.502Z,60.50
2023-02-28T05:59:58.066Z,60.80
2023-02-28T06:02:00.834Z,60.65
2023-02-28T06:04:05.169Z,60.43
2023-02-28T06:06:08.147Z,60.78
2023-02-28T06:08:12.059Z,61.16
2023-02-28T06:10:15.949Z,61.04
2023-02-28T06:12:18.529Z,60.79
2023-02-28T06:14:22.390Z,59.62
2023-02-28T06:16:25.449Z,60.13
2023-02-28T06:18:28.114Z,60.49
2023-02-28T06:20:31.014Z,59.89
2023-02-28T06:22:33.593Z,59.91
2023-02-28T06:24:37.657Z,60.40
2023-02-28T06:26:40.351Z,60.01
2023-02-28T06:28:42.933Z,59.99
2023-02-28T06:30:46.571Z,58.82
2023-02-28T06:32:50.496Z,59.30
2023-02-28T06:34:53.848Z,60.03
2023-02-28T06:36:56.384Z,59.69
2023-02-28T06:38:58.956Z,59.57
2023-02-28T06:41:03.517Z,59.82
2023-02-28T06:43:06.102Z,59.75
2023-02-28T06:45:10.646Z,59.44
2023-02-28T06:47:13.227Z,59.34
2023-02-28T06:49:15.937Z,59.00
2023-02-28T06:51:21.234Z,59.51
2023-02-28T06:53:23.787Z,59.83
2023-02-28T06:55:26.373Z,58.95
2023-02-28T06:57:32.835Z,58.47
2023-02-28T06:59:37.448Z,59.27
2023-02-28T07:01:40.122Z,58.38
2023-02-28T07:03:42.803Z,58.86
2023-02-28T07:05:45.430Z,58.96
2023-02-28T07:07:48.225Z,58.66
2023-02-28T07:09:50.852Z,59.04
2023-02-28T07:11:53.461Z,58.48
2023-02-28T07:13:58.267Z,58.99
2023-02-28T07:16:02.956Z,58.58
2023-02-28T07:18:05.762Z,58.95
2023-02-28T07:20:09.707Z,59.16
2023-02-28T07:22:13.730Z,58.94
2023-02-28T07:24:18.988Z,58.80
2023-02-28T07:26:22.331Z,58.79
2023-02-28T07:28:25.230Z,58.41
2023-02-28T07:30:29.169Z,58.62
2023-02-28T07:32:31.729Z,58.85
2023-02-28T07:34:34.308Z,58.48
2023-02-28T07:36:36.875Z,59.09
2023-02-28T07:38:39.658Z,58.37
2023-02-28T07:40:42.523Z,58.51
2023-02-28T07:42:45.393Z,58.08
2023-02-28T07:44:48.442Z,58.08
2023-02-28T07:46:52.357Z,58.68
2023-02-28T07:48:56.038Z,58.74
2023-02-28T07:50:58.752Z,58.25
2023-02-28T07:53:01.601Z,58.37
2023-02-28T07:55:05.517Z,57.60
2023-02-28T07:57:08.119Z,56.20
2023-02-28T07:59:10.998Z,57.24
2023-02-28T08:01:14.148Z,57.13
2023-02-28T08:03:19.044Z,57.34
2023-02-28T08:05:22.399Z,57.06
2023-02-28T08:07:25.050Z,57.00
2023-02-28T08:09:28.101Z,56.46
2023-02-28T08:11:30.924Z,57.11
2023-02-28T08:13:34.005Z,55.88
2023-02-28T08:15:37.306Z,55.70
2023-02-28T08:17:40.061Z,55.57
2023-02-28T08:19:44.012Z,56.42
2023-02-28T08:21:46.586Z,56.15
2023-02-28T08:23:49.932Z,56.36
2023-02-28T08:25:55.512Z,56.79
2023-02-28T08:27:58.090Z,56.55
2023-02-28T08:30:00.713Z,56.84
2023-02-28T08:32:03.441Z,57.06
2023-02-28T08:34:07.810Z,56.49
2023-02-28T08:36:12.129Z,55.97
2023-02-28T08:38:14.710Z,56.04
2023-02-28T08:40:19.209Z,55.69
2023-02-28T08:42:22.104Z,55.89
2023-02-28T08:44:24.681Z,56.09
2023-02-28T08:46:27.279Z,55.58
2023-02-28T08:48:32.524Z,56.04
2023-02-28T08:50:35.084Z,55.36
2023-02-28T08:52:39.446Z,55.99
2023-02-28T08:54:42.139Z,54.93
2023-02-28T08:56:44.653Z,54.92
2023-02-28T08:58:48.799Z,54.10
2023-02-28T09:00:52.435Z,53.42
2023-02-28T09:02:55.718Z,53.78
2023-02-28T09:04:58.263Z,54.25
2023-02-28T09:07:00.840Z,54.89
2023-02-28T09:09:07.046Z,54.46
2023-02-28T09:11:09.729Z,54.65
2023-02-28T09:13:12.297Z,55.38
2023-02-28T09:15:15.175Z,54.79
2023-02-28T09:17:17.959Z,55.08
2023-02-28T09:19:20.564Z,55.27
2023-02-28T09:21:23.125Z,55.11
2023-02-28T09:23:26.571Z,55.49
2023-02-28T09:25:30.475Z,55.38
2023-02-28T09:27:33.089Z,55.58
2023-02-28T09:29:37.074Z,55.83
2023-02-28T09:31:39.658Z,55.37
2023-02-28T09:33:42.282Z,55.93
2023-02-28T09:35:45.291Z,55.26
2023-02-28T09:37:47.889Z,55.92
2023-02-28T09:39:52.776Z,55.92
2023-02-28T09:41:58.731Z,55.12
2023-02-28T09:44:05.770Z,54.92
2023-02-28T09:46:16.266Z,55.16
2023-02-28T09:48:23.713Z,54.17
2023-02-28T09:50:36.022Z,54.76
2023-02-28T09:52:38.704Z,54.84
2023-02-28T09:54:41.519Z,54.60
2023-02-28T09:56:44.445Z,54.17
2023-02-28T09:58:54.053Z,55.30
2023-02-28T10:01:05.603Z,54.59
2023-02-28T10:03:30.583Z,53.73
2023-02-28T10:05:38.574Z,54.38
2023-02-28T10:08:01.076Z,54.88
2023-02-28T10:10:06.935Z,54.62
2023-02-28T10:12:13.490Z,53.64
2023-02-28T10:14:21.400Z,53.76
2023-02-28T10:16:29.833Z,55.48
2023-02-28T10:18:42.504Z,55.06
2023-02-28T10:20:45.977Z,54.78
2023-02-28T10:22:58.947Z,55.54
2023-02-28T10:25:05.986Z,55.05
2023-02-28T10:27:16.352Z,53.74
2023-02-28T10:29:20.283Z,53.63
2023-02-28T10:31:24.753Z,52.96
2023-02-28T10:33:31.983Z,54.63
2023-02-28T10:35:35.167Z,54.08
2023-02-28T10:37:40.015Z,54.85
2023-02-28T10:39:44.509Z,54.93
2023-02-28T10:41:47.120Z,54.45
2023-02-28T10:43:50.393Z,54.71
2023-02-28T10:46:00.944Z,54.06
2023-02-28T10:48:05.860Z,54.07
2023-02-28T10:50:38.924Z,53.99
2023-02-28T10:52:42.224Z,54.55
2023-02-28T10:54:44.823Z,53.99
2023-02-28T10:56:47.455Z,53.50
2023-02-28T10:58:54.624Z,53.83
2023-02-28T11:01:00.193Z,53.29
2023-02-28T11:03:02.825Z,53.38
2023-02-28T11:05:25.737Z,53.56
2023-02-28T11:07:37.378Z,53.67
2023-02-28T11:09:48.488Z,52.99
2023-02-28T11:11:51.960Z,52.37
2023-02-28T11:13:56.796Z,52.82
2023-02-28T11:16:03.080Z,53.19
2023-02-28T11:18:25.025Z,53.44
2023-02-28T11:20:30.481Z,52.75
2023-02-28T11:22:36.942Z,51.95
2023-02-28T11:24:45.484Z,52.59
2023-02-28T11:26:49.764Z,52.75
2023-02-28T11:29:10.949Z,52.16
2023-02-28T11:31:23.278Z,53.00
2023-02-28T11:33:29.703Z,52.47
2023-02-28T11:35:36.902Z,51.87
2023-02-28T11:37:40.678Z,50.84
2023-02-28T11:39:43.966Z,51.35
2023-02-28T11:42:06.773Z,52.17
2023-02-28T11:44:33.171Z,52.50
2023-02-28T11:46:43.823Z,52.27
2023-02-28T11:48:57.148Z,52.45
2023-02-28T11:51:08.814Z,51.79
2023-02-28T11:53:21.263Z,51.32
2023-02-28T11:55:29.358Z,51.37
2023-02-28T11:57:40.932Z,51.35
2023-02-28T11:59:56.954Z,51.21
2023-02-28T12:02:22.534Z,49.20
2023-02-28T12:04:36.040Z,50.86
2023-02-28T12:06:47.280Z,50.83
2023-02-28T12:09:00.189Z,51.30
2023-02-28T12:11:13.339Z,50.09
2023-02-28T12:13:24.077Z,50.18
2023-02-28T12:15:40.072Z,49.04
2023-02-28T12:17:58.611Z,49.87
2023-02-28T12:20:11.053Z,49.96
2023-02-28T12:22:30.084Z,50.42
2023-02-28T12:24:50.732Z,49.67
2023-02-28T12:26:56.022Z,50.19
2023-02-28T12:29:07.200Z,50.30
2023-02-28T12:31:20.106Z,50.36
2023-02-28T12:33:30.598Z,50.72
2023-02-28T12:35:37.511Z,51.16
2023-02-28T12:37:46.860Z,51.30
2023-02-28T12:39:54.471Z,51.23
2023-02-28T12:42:03.602Z,50.70
2023-02-28T12:44:12.518Z,50.86
2023-02-28T12:46:19.258Z,50.56
2023-02-28T12:48:28.071Z,50.35
2023-02-28T12:50:32.816Z,49.36
2023-02-28T12:52:43.801Z,49.67
2023-02-28T12:54:52.792Z,47.56
2023-02-28T12:57:05.803Z,47.47
2023-02-28T12:59:18.281Z,47.69
2023-02-28T13:01:45.480Z,47.90
2023-02-28T13:04:16.175Z,47.58
2023-02-28T13:06:40.605Z,46.48
2023-02-28T13:09:03.497Z,45.98
2023-02-28T13:11:13.094Z,45.63
2023-02-28T13:13:25.430Z,45.43
2023-02-28T13:15:30.201Z,45.75
2023-02-28T13:17:33.442Z,45.70
2023-02-28T13:19:41.112Z,45.55
2023-02-28T13:21:46.299Z,45.20
2023-02-28T13:24:01.115Z,43.86
2023-02-28T13:26:04.089Z,43.21
2023-02-28T13:28:12.558Z,41.47
2023-02-28T13:30:52.795Z,38.81
2023-02-28T13:33:29.828Z,37.06
2023-02-28T13:35:48.696Z,36.25
2023-02-28T13:37:52.726Z,35.37
2023-02-28T13:39:56.790Z,34.94
2023-02-28T13:42:25.613Z,35.10
2023-02-28T13:44:28.364Z,35.74
2023-02-28T13:46:31.914Z,35.99
2023-02-28T13:48:34.553Z,36.88
2023-02-28T13:50:39.375Z,37.62
2023-02-28T13:52:50.876Z,37.88
2023-02-28T13:55:17.921Z,39.07
2023-02-28T13:57:31.022Z,39.98
2023-02-28T13:59:41.841Z,40.75
2023-02-28T14:01:59.413Z,41.53
2023-02-28T14:04:23.705Z,41.38
2023-02-28T14:06:31.091Z,42.14
2023-02-28T14:08:35.894Z,42.48
2023-02-28T14:10:44.306Z,42.38
2023-02-28T14:12:58.789Z,42.61
2023-02-28T14:15:01.883Z,41.87
2023-02-28T14:17:06.106Z,42.04
2023-02-28T14:19:14.173Z,42.01
2023-02-28T14:21:26.353Z,41.83
2023-02-28T14:23:48.915Z,41.12
2023-02-28T14:26:07.646Z,41.01
2023-02-28T14:28:21.395Z,39.97
2023-02-28T14:30:42.272Z,40.56
2023-02-28T14:32:53.174Z,39.79
2023-02-28T14:35:05.243Z,39.73
2023-02-28T14:37:12.743Z,39.55
2023-02-28T14:39:19.952Z,39.86
2023-02-28T14:41:25.183Z,39.61
2023-02-28T14:43:29.685Z,40.26
2023-02-28T14:45:34.067Z,39.63
2023-02-28T14:47:38.206Z,39.29
2023-02-28T14:49:46.621Z,38.73
2023-02-28T14:51:51.380Z,39.32
2023-02-28T14:53:59.339Z,39.57
2023-02-28T14:56:03.539Z,39.75
2023-02-28T14:58:08.443Z,40.28
2023-02-28T15:00:16.204Z,39.40
2023-02-28T15:02:23.109Z,39.15
2023-02-28T15:04:29.726Z,39.42
2023-02-28T15:06:33.143Z,39.65
2023-02-28T15:08:37.247Z,39.16
2023-02-28T15:10:42.117Z,38.52
2023-02-28T15:12:51.523Z,39.78
2023-02-28T15:14:54.135Z,39.88
2023-02-28T15:17:01.832Z,39.76
2023-02-28T15:19:08.892Z,40.01
2023-02-28T15:21:16.711Z,40.35
2023-02-28T15:23:22.670Z,40.74
2023-02-28T15:25:26.462Z,40.47
2023-02-28T15:27:33.053Z,40.85
2023-02-28T15:29:46.916Z,40.90
2023-02-28T15:31:57.544Z,40.77
2023-02-28T15:34:06.480Z,41.15
2023-02-28T15:36:15.553Z,40.77
2023-02-28T15:38:23.558Z,41.09
2023-02-28T15:40:30.803Z,41.70
2023-02-28T15:42:33.445Z,41.79
2023-02-28T15:44:38.217Z,42.07
2023-02-28T15:46:56.949Z,42.07
2023-02-28T15:48:59.600Z,41.96
2023-02-28T15:51:07.846Z,41.36
2023-02-28T15:53:15.783Z,41.61
2023-02-28T15:55:21.791Z,41.96
2023-02-28T15:57:27.272Z,42.09
2023-02-28T15:59:32.230Z,42.16
2023-02-28T16:01:40.386Z,42.41
2023-02-28T16:03:47.123Z,42.80
2023-02-28T16:06:23.619Z,42.94
2023-02-28T16:08:26.174Z,42.51
2023-02-28T16:10:30.421Z,43.17
2023-02-28T16:12:35.726Z,42.56
2023-02-28T16:14:39.660Z,43.38
2023-02-28T16:16:47.265Z,43.45
2023-02-28T16:18:50.436Z,43.83
2023-02-28T16:20:52.978Z,43.85
2023-02-28T16:22:56.247Z,44.32
2023-02-28T16:24:58.823Z,44.35
2023-02-28T16:27:02.107Z,44.49
2023-02-28T16:29:05.418Z,44.92
2023-02-28T16:31:11.841Z,44.90
2023-02-28T16:33:15.793Z,44.98
2023-02-28T16:35:18.884Z,45.03
2023-02-28T16:37:21.457Z,45.14
2023-02-28T16:39:24.040Z,45.09
2023-02-28T16:41:29.864Z,45.23
2023-02-28T16:43:33.313Z,45.67
2023-02-28T16:45:36.002Z,45.62
2023-02-28T16:47:38.578Z,45.77
2023-02-28T16:49:44.152Z,45.84
2023-02-28T16:51:46.749Z,45.95
2023-02-28T16:53:49.820Z,45.83
2023-02-28T16:55:52.673Z,45.81
2023-02-28T16:57:57.889Z,45.82
2023-02-28T17:00:00.532Z,46.15
2023-02-28T17:02:03.133Z,46.40
2023-02-28T17:04:05.871Z,46.23
2023-02-28T17:06:19.800Z,46.39
2023-02-28T17:08:22.424Z,46.31
2023-02-28T17:10:26.920Z,46.49
2023-02-28T17:12:29.486Z,46.52
2023-02-28T17:14:32.029Z,46.77
2023-02-28T17:16:37.469Z,46.93
2023-02-28T17:18:40.140Z,47.16
2023-02-28T17:20:43.305Z,46.92
2023-02-28T17:22:47.263Z,47.11
2023-02-28T17:24:49.833Z,46.93
2023-02-28T17:26:52.406Z,47.05
2023-02-28T17:28:56.751Z,47.17
2023-02-28T17:30:59.405Z,47.49
2023-02-28T17:33:02.122Z,47.48
2023-02-28T17:35:04.973Z,47.66
2023-02-28T17:37:07.566Z,47.64
2023-02-28T17:39:14.802Z,47.69
2023-02-28T17:41:20.695Z,47.60
2023-02-28T17:43:23.216Z,47.45
2023-02-28T17:45:25.887Z,47.53
2023-02-28T17:47:28.511Z,47.60
2023-02-28T17:49:31.132Z,48.00
2023-02-28T17:51:33.710Z,47.77
2023-02-28T17:53:36.275Z,47.78
2023-02-28T17:55:41.180Z,48.41
2023-02-28T17:57:44.115Z,48.06
2023-02-28T17:59:46.723Z,48.50
2023-02-28T18:01:49.330Z,48.56
2023-02-28T18:03:51.974Z,48.41
2023-02-28T18:05:54.519Z,48.45
2023-02-28T18:07:57.656Z,48.46
2023-02-28T18:10:00.294Z,48.81
2023-02-28T18:12:04.239Z,48.70
2023-02-28T18:14:06.764Z,48.57
2023-02-28T18:16:10.247Z,48.58
2023-02-28T18:18:12.841Z,48.97
2023-02-28T18:20:15.775Z,48.59
2023-02-28T18:22:18.579Z,48.83
2023-02-28T18:24:23.009Z,48.89
2023-02-28T18:26:25.851Z,49.18
2023-02-28T18:28:29.747Z,49.06
2023-02-28T18:30:34.286Z,49.23
2023-02-28T18:32:36.835Z,49.37
2023-02-28T18:34:39.498Z,49.66
2023-02-28T18:36:42.962Z,49.89
2023-02-28T18:38:46.027Z,49.87
2023-02-28T18:40:53.951Z,49.97
2023-02-28T18:42:56.593Z,49.72
2023-02-28T18:45:00.484Z,49.46
2023-02-28T18:47:03.116Z,49.76
2023-02-28T18:49:06.253Z,49.79
2023-02-28T18:51:09.795Z,50.04
2023-02-28T18:53:12.428Z,49.95
2023-02-28T18:55:18.655Z,50.19
2023-02-28T18:57:21.233Z,50.21
2023-02-28T18:59:24.215Z,50.27
2023-02-28T19:01:31.148Z,50.11
2023-02-28T19:03:33.961Z,50.37
2023-02-28T19:05:38.098Z,49.95
2023-02-28T19:07:40.877Z,50.30
2023-02-28T19:09:43.412Z,50.41
2023-02-28T19:11:46.037Z,50.27
2023-02-28T19:13:48.783Z,50.61
2023-02-28T19:15:56.234Z,50.55
2023-02-28T19:18:00.839Z,50.14
2023-02-28T19:20:03.417Z,50.53
2023-02-28T19:22:06.038Z,50.53
2023-02-28T19:24:08.684Z,50.52
2023-02-28T19:26:13.196Z,50.94
2023-02-28T19:28:15.768Z,50.89
2023-02-28T19:30:18.653Z,50.44
2023-02-28T19:32:22.413Z,50.54
2023-02-28T19:34:26.450Z,50.63
2023-02-28T19:36:29.053Z,50.93
2023-02-28T19:38:31.732Z,50.89
2023-02-28T19:40:34.280Z,51.01
2023-02-28T19:42:37.005Z,51.14
2023-02-28T19:44:39.670Z,50.66
2023-02-28T19:46:42.243Z,51.26
2023-02-28T19:48:44.951Z,50.80
2023-02-28T19:50:48.894Z,51.32
2023-02-28T19:52:51.517Z,51.58
2023-02-28T19:54:54.045Z,51.82
2023-02-28T19:56:58.366Z,51.07
2023-02-28T19:59:00.911Z,51.61
2023-02-28T20:01:08.346Z,51.42
2023-02-28T20:03:10.933Z,51.32
2023-02-28T20:05:13.499Z,52.05
2023-02-28T20:07:20.244Z,51.99
2023-02-28T20:09:23.005Z,51.35
2023-02-28T20:11:25.758Z,51.54
2023-02-28T20:13:28.722Z,51.54
2023-02-28T20:15:32.309Z,51.37
2023-02-28T20:17:34.920Z,51.79
2023-02-28T20:19:37.957Z,51.88
2023-02-28T20:21:41.283Z,52.19
2023-02-28T20:23:48.524Z,52.05
2023-02-28T20:25:51.748Z,52.06
2023-02-28T20:27:54.316Z,51.72
2023-02-28T20:29:56.933Z,51.74
2023-02-28T20:31:59.567Z,51.57
2023-02-28T20:34:02.135Z,52.11
2023-02-28T20:36:06.240Z,51.78
2023-02-28T20:38:08.946Z,52.49
2023-02-28T20:40:14.411Z,52.24
2023-02-28T20:42:16.972Z,52.29
2023-02-28T20:44:19.733Z,52.72
2023-02-28T20:46:22.397Z,52.27
2023-02-28T20:48:25.573Z,52.67
2023-02-28T20:50:28.161Z,52.58
2023-02-28T20:52:30.705Z,52.27
2023-02-28T20:54:33.277Z,52.21
2023-02-28T20:56:37.200Z,52.18
2023-02-28T20:58:39.834Z,52.47
2023-02-28T21:00:45.073Z,52.98
2023-02-28T21:02:47.638Z,52.46
2023-02-28T21:04:50.223Z,52.68
2023-02-28T21:06:53.376Z,52.93
2023-02-28T21:08:56.792Z,52.82
2023-02-28T21:10:59.346Z,53.23
2023-02-28T21:13:03.237Z,52.66
2023-02-28T21:15:06.466Z,53.08
2023-02-28T21:17:10.403Z,52.98
2023-02-28T21:19:13.557Z,52.88
2023-02-28T21:21:18.131Z,53.16
2023-02-28T21:23:20.938Z,52.83
2023-02-28T21:25:23.538Z,53.05
2023-02-28T21:27:26.100Z,53.03
2023-02-28T21:29:30.008Z,53.62
2023-02-28T21:31:35.512Z,53.77
2023-02-28T21:33:38.134Z,53.88
2023-02-28T21:35:40.757Z,53.33
2023-02-28T21:37:44.024Z,53.55
2023-02-28T21:39:47.288Z,53.36
2023-02-28T21:41:49.931Z,53.55
2023-02-28T21:43:53.201Z,53.92
2023-02-28T21:45:57.145Z,53.66
2023-02-28T21:47:59.985Z,53.61
2023-02-28T21:50:02.586Z,53.81
2023-02-28T21:52:05.271Z,54.18
2023-02-28T21:54:07.832Z,53.93
2023-02-28T21:56:14.322Z,54.31
2023-02-28T21:58:17.146Z,54.34
2023-02-28T22:00:20.770Z,54.52
2023-02-28T22:02:24.668Z,54.78
2023-02-28T22:04:27.267Z,54.72
2023-02-28T22:06:34.440Z,54.25
2023-02-28T22:08:37.022Z,54.63
2023-02-28T22:10:39.555Z,54.50
2023-02-28T22:12:42.092Z,54.62
2023-02-28T22:14:46.162Z,55.01
2023-02-28T22:16:53.313Z,54.60
2023-02-28T22:18:59.197Z,54.67
2023-02-28T22:21:01.842Z,54.96
2023-02-28T22:23:04.401Z,54.45
2023-02-28T22:25:09.561Z,54.55
2023-02-28T22:27:12.188Z,55.13
2023-02-28T22:29:14.763Z,55.08
2023-02-28T22:31:18.800Z,55.03
2023-02-28T22:33:21.368Z,54.69
2023-02-28T22:35:25.288Z,54.94
2023-02-28T22:37:27.857Z,55.10
2023-02-28T22:39:30.403Z,54.97
2023-02-28T22:41:33.174Z,55.17
2023-02-28T22:43:36.014Z,55.57
2023-02-28T22:45:39.655Z,55.14
2023-02-28T22:47:42.246Z,55.61
2023-02-28T22:49:44.924Z,55.62
2023-02-28T22:51:48.857Z,55.39
2023-02-28T22:53:52.810Z,55.44
2023-02-28T22:55:56.284Z,54.99
2023-02-28T22:58:00.045Z,55.16
2023-02-28T23:00:02.837Z,55.24
2023-02-28T23:02:05.420Z,55.71
2023-02-28T23:04:08.103Z,54.98
2023-02-28T23:06:16.197Z,55.62
2023-02-28T23:08:22.337Z,55.45
2023-02-28T23:10:24.874Z,55.45
2023-02-28T23:12:27.612Z,56.08
2023-02-28T23:14:30.166Z,55.68
2023-02-28T23:16:38.714Z,55.63
2023-02-28T23:18:41.342Z,56.02
2023-02-28T23:20:43.911Z,56.41
2023-02-28T23:22:50.457Z,56.65
2023-02-28T23:24:54.464Z,56.50
2023-02-28T23:26:59.232Z,56.39
2023-02-28T23:29:01.780Z,56.82
2023-02-28T23:31:05.187Z,57.03
2023-02-28T23:33:07.854Z,56.50
2023-02-28T23:35:11.785Z,56.90
2023-02-28T23:37:14.357Z,56.65
2023-02-28T23:39:18.595Z,57.01
2023-02-28T23:41:23.570Z,56.58
2023-02-28T23:43:26.168Z,56.58
2023-02-28T23:45:28.806Z,56.68
2023-02-28T23:47:32.473Z,57.31
2023-02-28T23:49:35.177Z,56.70
2023-02-28T23:51:37.937Z,56.69
2023-02-28T23:53:43.614Z,57.04
2023-02-28T23:55:48.056Z,56.77
2023-02-28T23:57:51.956Z,56.96
2023-02-28T23:59:54.837Z,56.61
